Time,TemperatureF,DewpointF,PressureIn,WindDirection,WindDirectionDegrees,WindSpeedMPH,WindSpeedGustMPH,Humidity,HourlyPrecipIn,Conditions,Clouds,dailyrainin,SoftwareType,DateUTC
2013-10-03 00:12:00,39.0,31.0,29.77,WSW,258,0.0,2.0,72,0.00,,,0.00,,2013-10-03 06:12:00,
2013-10-03 00:22:00,39.0,30.0,29.78,WSW,252,6.0,10.0,71,0.00,,,0.00,,2013-10-03 06:22:00,
2013-10-03 00:42:00,40.0,29.0,29.78,West,271,9.0,14.0,65,0.00,,,0.00,,2013-10-03 06:42:00,
2013-10-03 00:52:00,39.0,29.0,29.78,West,267,10.0,14.0,68,0.00,,,0.00,,2013-10-03 06:52:00,
2013-10-03 01:11:00,37.0,30.0,29.78,WSW,252,16.0,25.0,75,0.00,,,0.00,,2013-10-03 07:11:00,
2013-10-03 01:22:00,36.0,30.0,29.78,SW,227,9.0,19.0,78,0.00,,,0.00,,2013-10-03 07:22:00,
2013-10-03 01:52:00,35.0,30.0,29.78,SW,230,8.0,13.0,81,0.00,,,0.00,,2013-10-03 07:52:00,
2013-10-03 02:22:00,35.0,30.0,29.78,WSW,254,5.0,9.0,81,0.00,,,0.00,,2013-10-03 08:22:00,
2013-10-03 02:42:00,35.0,30.0,29.79,West,271,12.0,16.0,81,0.00,,,0.00,,2013-10-03 08:42:00,
2013-10-03 02:52:00,34.0,30.0,29.81,WSW,258,14.0,21.0,86,0.00,,,0.00,,2013-10-03 08:52:00,
2013-10-03 03:21:00,32.0,30.0,29.80,WSW,240,13.0,20.0,94,0.00,,,0.00,,2013-10-03 09:21:00,
2013-10-03 03:53:00,33.0,32.0,29.79,WSW,250,7.0,10.0,95,0.00,,,0.00,,2013-10-03 09:53:00,
2013-10-03 04:22:00,33.0,32.0,29.77,WSW,254,8.0,18.0,96,0.00,,,0.00,,2013-10-03 10:22:00,
2013-10-03 04:52:00,33.0,32.0,29.78,WSW,240,11.0,17.0,96,0.00,,,0.00,,2013-10-03 10:52:00,
2013-10-03 05:12:00,34.0,33.0,29.78,SW,233,12.0,16.0,96,0.00,,,0.00,,2013-10-03 11:12:00,
2013-10-03 05:22:00,33.0,32.0,29.78,SW,232,11.0,17.0,96,0.00,,,0.00,,2013-10-03 11:22:00,
2013-10-03 05:52:00,33.0,32.0,29.78,SW,226,9.0,15.0,96,0.00,,,0.00,,2013-10-03 11:52:00,
2013-10-03 06:22:00,33.0,32.0,29.77,SW,232,13.0,20.0,96,0.00,,,0.00,,2013-10-03 12:22:00,
2013-10-03 06:52:00,32.0,31.0,29.77,SW,223,15.0,21.0,96,0.00,,,0.00,,2013-10-03 12:52:00,
2013-10-03 07:11:00,32.0,31.0,29.77,WSW,242,12.0,19.0,95,0.00,,,0.00,,2013-10-03 13:11:00,
2013-10-03 07:21:00,33.0,31.0,29.77,WSW,237,14.0,20.0,94,0.00,,,0.00,,2013-10-03 13:21:00,
2013-10-03 07:52:00,32.0,30.0,29.77,SW,222,16.0,22.0,92,0.00,,,0.00,,2013-10-03 13:52:00,
2013-10-03 08:21:00,31.0,28.0,29.78,SSW,213,12.0,21.0,87,0.00,,,0.00,,2013-10-03 14:21:00,
2013-10-03 08:52:00,32.0,26.0,29.77,SW,233,12.0,24.0,79,0.00,,,0.00,,2013-10-03 14:52:00,
2013-10-03 09:21:00,32.0,27.0,29.80,SW,229,10.0,19.0,82,0.00,,,0.00,,2013-10-03 15:21:00,
2013-10-03 09:53:00,31.0,26.0,29.81,SW,225,12.0,21.0,83,0.00,,,0.00,,2013-10-03 15:53:00,
2013-10-03 10:23:00,31.0,26.0,29.81,WSW,245,12.0,23.0,82,0.00,,,0.00,,2013-10-03 16:23:00,
2013-10-03 10:42:00,31.0,27.0,29.80,SSW,201,17.0,24.0,84,0.00,,,0.00,,2013-10-03 16:42:00,
2013-10-03 10:53:00,31.0,27.0,29.81,WSW,238,15.0,22.0,86,0.00,,,0.00,,2013-10-03 16:53:00,
2013-10-03 11:22:00,32.0,27.0,29.81,WSW,247,13.0,27.0,82,0.00,,,0.00,,2013-10-03 17:22:00,
2013-10-03 11:42:00,32.0,27.0,29.82,SW,221,13.0,23.0,80,0.00,,,0.00,,2013-10-03 17:42:00,
2013-10-03 11:52:00,32.0,27.0,29.83,WSW,250,16.0,23.0,82,0.00,,,0.00,,2013-10-03 17:52:00,
2013-10-03 12:12:00,32.0,27.0,29.83,SW,223,13.0,25.0,82,0.00,,,0.00,,2013-10-03 18:12:00,
2013-10-03 12:22:00,32.0,27.0,29.84,WSW,252,13.0,22.0,81,0.00,,,0.00,,2013-10-03 18:22:00,
2013-10-03 12:52:00,31.0,27.0,29.84,SW,229,12.0,19.0,85,0.00,,,0.00,,2013-10-03 18:52:00,
2013-10-03 13:21:00,31.0,27.0,29.85,SW,215,13.0,19.0,86,0.00,,,0.00,,2013-10-03 19:21:00,
2013-10-03 13:52:00,32.0,28.0,29.83,SW,232,14.0,23.0,84,0.00,,,0.00,,2013-10-03 19:52:00,
2013-10-03 14:11:00,33.0,28.0,29.83,SW,229,15.0,24.0,82,0.00,,,0.00,,2013-10-03 20:11:00,
2013-10-03 14:21:00,32.0,27.0,29.84,SW,226,17.0,25.0,82,0.00,,,0.00,,2013-10-03 20:21:00,
2013-10-03 14:42:00,32.0,27.0,29.85,WSW,243,13.0,27.0,83,0.00,,,0.00,,2013-10-03 20:42:00,
2013-10-03 14:52:00,33.0,29.0,29.85,WSW,241,14.0,23.0,84,0.00,,,0.00,,2013-10-03 20:52:00,
2013-10-03 15:21:00,32.0,28.0,29.86,SW,231,12.0,18.0,86,0.00,,,0.00,,2013-10-03 21:21:00,
2013-10-03 15:54:00,33.0,29.0,29.87,SW,221,9.0,15.0,85,0.01,,,0.01,,2013-10-03 21:54:00,
2013-10-03 16:13:00,34.0,30.0,29.87,South,171,8.0,13.0,85,0.01,,,0.01,,2013-10-03 22:13:00,
2013-10-03 16:23:00,34.0,30.0,29.88,WSW,245,6.0,11.0,84,0.01,,,0.01,,2013-10-03 22:23:00,
2013-10-03 16:43:00,33.0,29.0,29.88,SW,225,6.0,11.0,86,0.00,,,0.01,,2013-10-03 22:43:00,
2013-10-03 16:54:00,32.0,29.0,29.88,SW,229,6.0,8.0,87,0.00,,,0.01,,2013-10-03 22:54:00,
2013-10-03 17:21:00,32.0,29.0,29.89,SW,225,6.0,10.0,90,0.00,,,0.01,,2013-10-03 23:21:00,
2013-10-03 17:52:00,32.0,30.0,29.89,WSW,245,4.0,7.0,92,0.00,,,0.01,,2013-10-03 23:52:00,
2013-10-03 18:12:00,32.0,30.0,29.90,WSW,245,1.0,4.0,93,0.00,,,0.01,,2013-10-04 00:12:00,
2013-10-03 18:21:00,32.0,30.0,29.90,WSW,245,0.0,0.0,93,0.00,,,0.01,,2013-10-04 00:21:00,
2013-10-03 18:42:00,32.0,30.0,29.90,WSW,245,0.0,0.0,93,0.00,,,0.01,,2013-10-04 00:42:00,
2013-10-03 18:52:00,32.0,30.0,29.90,WSW,245,0.0,1.0,94,0.00,,,0.01,,2013-10-04 00:52:00,
2013-10-03 19:12:00,32.0,30.0,29.91,WSW,245,0.0,0.0,94,0.00,,,0.01,,2013-10-04 01:12:00,
2013-10-03 19:21:00,32.0,30.0,29.91,WSW,245,0.0,0.0,94,0.00,,,0.01,,2013-10-04 01:21:00,
2013-10-03 19:52:00,32.0,30.0,29.92,WSW,252,2.0,3.0,94,0.00,,,0.01,,2013-10-04 01:52:00,
2013-10-03 20:22:00,32.0,31.0,29.94,NW,307,2.0,4.0,95,0.00,,,0.01,,2013-10-04 02:22:00,
2013-10-03 20:52:00,32.0,31.0,29.95,NW,314,2.0,5.0,95,0.00,,,0.01,,2013-10-04 02:52:00,
2013-10-03 21:22:00,31.0,30.0,29.95,NNE,13,1.0,4.0,95,0.00,,,0.01,,2013-10-04 03:22:00,
2013-10-03 21:44:00,31.0,30.0,29.95,WNW,294,2.0,9.0,96,0.00,,,0.01,,2013-10-04 03:44:00,
2013-10-03 21:59:00,31.0,30.0,29.96,NW,317,2.0,6.0,96,0.00,,,0.01,,2013-10-04 03:59:00,
2013-10-03 23:04:00,30.0,29.0,29.98,NNW,338,3.0,10.0,96,0.00,,,0.01,,2013-10-04 05:04:00,
2013-10-03 23:26:00,30.0,29.0,29.99,NW,325,1.0,9.0,96,0.00,,,0.01,,2013-10-04 05:26:00,
2013-10-03 23:57:00,30.0,29.0,29.99,NNW,339,3.0,9.0,96,0.00,,,0.01,,2013-10-04 05:57:00,